sensor_id;sensor_type;location;lat;lon;timestamp;pressure;altitude;pressure_sealevel;temperature;humidity
22964;BME280;11648;49.306;6.934;2023-02-12T00:02:02;100440.34;;;10.66;64.61
22964;BME280;11648;49.306;6.934;2023-02-12T00:04:29;100443.81;;;10.65;64.10
22964;BME280;11648;49.306;6.934;2023-02-12T00:06:55;100434.13;;;10.63;64.23
22964;BME280;11648;49.306;6.934;2023-02-12T00:09:22;100423.53;;;10.61;64.47
22964;BME280;11648;49.306;6.934;2023-02-12T00:11:48;100426.28;;;10.67;64.39
22964;BME280;11648;49.306;6.934;2023-02-12T00:14:15;100423.75;;;10.70;63.88
22964;BME280;11648;49.306;6.934;2023-02-12T00:16:42;100419.34;;;10.71;63.84
22964;BME280;11648;49.306;6.934;2023-02-12T00:19:09;100419.38;;;10.72;64.26
22964;BME280;11648;49.306;6.934;2023-02-12T00:21:35;100430.75;;;10.71;63.83
22964;BME280;11648;49.306;6.934;2023-02-12T00:24:02;100425.38;;;10.65;64.07
22964;BME280;11648;49.306;6.934;2023-02-12T00:26:29;100424.44;;;10.63;64.31
22964;BME280;11648;49.306;6.934;2023-02-12T00:28:56;100424.44;;;10.63;64.01
22964;BME280;11648;49.306;6.934;2023-02-12T00:31:26;100433.25;;;10.64;64.37
22964;BME280;11648;49.306;6.934;2023-02-12T00:33:55;100430.50;;;10.58;64.36
22964;BME280;11648;49.306;6.934;2023-02-12T00:36:24;100432.16;;;10.54;64.54
22964;BME280;11648;49.306;6.934;2023-02-12T00:38:53;100432.97;;;10.50;64.56
22964;BME280;11648;49.306;6.934;2023-02-12T00:41:21;100433.84;;;10.51;64.37
22964;BME280;11648;49.306;6.934;2023-02-12T00:43:49;100436.44;;;10.48;64.71
22964;BME280;11648;49.306;6.934;2023-02-12T00:46:16;100446.03;;;10.46;64.79
22964;BME280;11648;49.306;6.934;2023-02-12T00:48:42;100448.59;;;10.43;65.31
22964;BME280;11648;49.306;6.934;2023-02-12T00:51:09;100452.00;;;10.37;65.16
22964;BME280;11648;49.306;6.934;2023-02-12T00:53:36;100452.84;;;10.34;65.02
22964;BME280;11648;49.306;6.934;2023-02-12T00:56:03;100453.69;;;10.33;65.20
22964;BME280;11648;49.306;6.934;2023-02-12T00:58:30;100455.38;;;10.31;65.61
22964;BME280;11648;49.306;6.934;2023-02-12T01:00:58;100457.22;;;10.34;65.39
22964;BME280;11648;49.306;6.934;2023-02-12T01:03:25;100451.16;;;10.38;65.06
22964;BME280;11648;49.306;6.934;2023-02-12T01:05:52;100460.88;;;10.42;64.92
22964;BME280;11648;49.306;6.934;2023-02-12T01:08:20;100464.31;;;10.38;65.12
22964;BME280;11648;49.306;6.934;2023-02-12T01:11:02;100452.06;;;10.40;65.26
22964;BME280;11648;49.306;6.934;2023-02-12T01:13:30;100458.28;;;10.44;65.39
22964;BME280;11648;49.306;6.934;2023-02-12T01:16:08;100448.69;;;10.47;65.00
22964;BME280;11648;49.306;6.934;2023-02-12T01:18:36;100461.09;;;10.51;64.92
22964;BME280;11648;49.306;6.934;2023-02-12T01:21:10;100440.13;;;10.56;65.08
22964;BME280;11648;49.306;6.934;2023-02-12T01:23:37;100442.75;;;10.57;65.06
22964;BME280;11648;49.306;6.934;2023-02-12T01:26:04;100447.97;;;10.54;64.96
22964;BME280;11648;49.306;6.934;2023-02-12T01:28:30;100447.13;;;10.55;64.45
22964;BME280;11648;49.306;6.934;2023-02-12T01:30:57;100447.09;;;10.54;64.80
22964;BME280;11648;49.306;6.934;2023-02-12T01:33:25;100448.88;;;10.56;64.85
22964;BME280;11648;49.306;6.934;2023-02-12T01:35:53;100452.34;;;10.52;64.46
22964;BME280;11648;49.306;6.934;2023-02-12T01:38:20;100454.91;;;10.51;65.02
22964;BME280;11648;49.306;6.934;2023-02-12T01:40:47;100449.66;;;10.51;64.58
22964;BME280;11648;49.306;6.934;2023-02-12T01:43:14;100453.13;;;10.50;65.11
22964;BME280;11648;49.306;6.934;2023-02-12T01:45:49;100452.25;;;10.49;64.88
22964;BME280;11648;49.306;6.934;2023-02-12T01:48:17;100458.38;;;10.48;64.72
22964;BME280;11648;49.306;6.934;2023-02-12T01:50:47;100455.72;;;10.47;64.71
22964;BME280;11648;49.306;6.934;2023-02-12T01:53:15;100460.00;;;10.42;64.60
22964;BME280;11648;49.306;6.934;2023-02-12T01:55:47;100451.06;;;10.35;64.94
22964;BME280;11648;49.306;6.934;2023-02-12T01:58:14;100448.41;;;10.33;65.78
22964;BME280;11648;49.306;6.934;2023-02-12T02:00:42;100438.00;;;10.38;65.10
22964;BME280;11648;49.306;6.934;2023-02-12T02:03:08;100441.66;;;10.46;64.99
22964;BME280;11648;49.306;6.934;2023-02-12T02:08:11;100432.84;;;10.44;65.15
22964;BME280;11648;49.306;6.934;2023-02-12T02:10:38;100429.28;;;10.42;64.80
22964;BME280;11648;49.306;6.934;2023-02-12T02:13:05;100431.16;;;10.48;65.11
22964;BME280;11648;49.306;6.934;2023-02-12T02:15:56;100426.06;;;10.55;64.69
22964;BME280;11648;49.306;6.934;2023-02-12T02:21:30;100412.84;;;10.54;64.83
22964;BME280;11648;49.306;6.934;2023-02-12T02:24:42;100416.47;;;10.59;64.26
22964;BME280;11648;49.306;6.934;2023-02-12T02:27:20;100417.38;;;10.61;64.48
22964;BME280;11648;49.306;6.934;2023-02-12T02:38:55;100410.38;;;10.61;64.10
22964;BME280;11648;49.306;6.934;2023-02-12T02:41:36;100412.94;;;10.58;64.40
22964;BME280;11648;49.306;6.934;2023-02-12T02:44:11;100410.22;;;10.54;64.43
22964;BME280;11648;49.306;6.934;2023-02-12T02:46:46;100405.00;;;10.55;64.47
22964;BME280;11648;49.306;6.934;2023-02-12T02:49:23;100408.44;;;10.53;64.59
22964;BME280;11648;49.306;6.934;2023-02-12T02:51:55;100405.78;;;10.53;64.56
22964;BME280;11648;49.306;6.934;2023-02-12T02:54:29;100405.88;;;10.56;64.59
22964;BME280;11648;49.306;6.934;2023-02-12T02:57:04;100398.97;;;10.62;64.43
22964;BME280;11648;49.306;6.934;2023-02-12T02:59:37;100405.16;;;10.64;63.99
22964;BME280;11648;49.306;6.934;2023-02-12T03:02:09;100400.84;;;10.68;63.82
22964;BME280;11648;49.306;6.934;2023-02-12T03:04:43;100407.00;;;10.67;64.12
22964;BME280;11648;49.306;6.934;2023-02-12T03:07:35;100407.09;;;10.74;63.75
22964;BME280;11648;49.306;6.934;2023-02-12T03:10:12;100403.56;;;10.72;63.58
22964;BME280;11648;49.306;6.934;2023-02-12T03:13:06;100395.66;;;10.72;64.07
22964;BME280;11648;49.306;6.934;2023-02-12T03:18:10;100397.31;;;10.67;64.15
22964;BME280;11648;49.306;6.934;2023-02-12T03:20:46;100392.78;;;10.59;63.94
22964;BME280;11648;49.306;6.934;2023-02-12T03:23:20;100390.31;;;10.68;64.29
22964;BME280;11648;49.306;6.934;2023-02-12T03:25:52;100393.88;;;10.70;64.26
22964;BME280;11648;49.306;6.934;2023-02-12T03:28:28;100394.72;;;10.69;63.73
22964;BME280;11648;49.306;6.934;2023-02-12T03:31:18;100395.63;;;10.71;63.92
22964;BME280;11648;49.306;6.934;2023-02-12T03:34:03;100398.31;;;10.72;64.03
22964;BME280;11648;49.306;6.934;2023-02-12T03:36:53;100391.38;;;10.77;63.75
22964;BME280;11648;49.306;6.934;2023-02-12T03:39:36;100394.94;;;10.79;63.95
22964;BME280;11648;49.306;6.934;2023-02-12T03:42:15;100389.75;;;10.84;63.74
22964;BME280;11648;49.306;6.934;2023-02-12T03:47:18;100400.31;;;10.85;63.56
22964;BME280;11648;49.306;6.934;2023-02-12T03:50:15;100395.03;;;10.84;63.38
22964;BME280;11648;49.306;6.934;2023-02-12T03:52:44;100396.75;;;10.83;63.60
22964;BME280;11648;49.306;6.934;2023-02-12T03:55:14;100401.09;;;10.81;63.71
22964;BME280;11648;49.306;6.934;2023-02-12T03:57:45;100403.72;;;10.81;63.36
22964;BME280;11648;49.306;6.934;2023-02-12T04:00:20;100393.28;;;10.84;63.75
22964;BME280;11648;49.306;6.934;2023-02-12T04:02:47;100409.94;;;10.83;63.42
22964;BME280;11648;49.306;6.934;2023-02-12T04:05:18;100405.56;;;10.85;63.69
22964;BME280;11648;49.306;6.934;2023-02-12T04:07:45;100401.19;;;10.86;63.71
22964;BME280;11648;49.306;6.934;2023-02-12T04:10:12;100403.81;;;10.84;63.17
22964;BME280;11648;49.306;6.934;2023-02-12T04:12:48;100407.31;;;10.83;63.71
22964;BME280;11648;49.306;6.934;2023-02-12T04:21:03;100403.72;;;10.81;63.22
22964;BME280;11648;49.306;6.934;2023-02-12T04:26:26;100403.81;;;10.84;63.55
22964;BME280;11648;49.306;6.934;2023-02-12T04:29:16;100403.94;;;10.90;63.27
22964;BME280;11648;49.306;6.934;2023-02-12T04:37:29;100409.84;;;10.79;63.55
22964;BME280;11648;49.306;6.934;2023-02-12T04:40:03;100410.69;;;10.78;63.68
22964;BME280;11648;49.306;6.934;2023-02-12T04:42:43;100414.09;;;10.72;63.91
22964;BME280;11648;49.306;6.934;2023-02-12T04:45:11;100413.13;;;10.67;63.84
22964;BME280;11648;49.306;6.934;2023-02-12T04:47:39;100416.75;;;10.72;64.12
22964;BME280;11648;49.306;6.934;2023-02-12T04:50:06;100414.16;;;10.74;64.01
22964;BME280;11648;49.306;6.934;2023-02-12T04:52:33;100412.38;;;10.73;63.83
22964;BME280;11648;49.306;6.934;2023-02-12T04:55:00;100410.63;;;10.75;64.23
22964;BME280;11648;49.306;6.934;2023-02-12T04:57:27;100407.84;;;10.67;64.20
22964;BME280;11648;49.306;6.934;2023-02-12T04:59:53;100411.38;;;10.66;64.48
22964;BME280;11648;49.306;6.934;2023-02-12T05:02:20;100411.22;;;10.60;64.48
22964;BME280;11648;49.306;6.934;2023-02-12T05:04:48;100409.47;;;10.61;64.65
22964;BME280;11648;49.306;6.934;2023-02-12T05:07:15;100404.06;;;10.53;64.84
22964;BME280;11648;49.306;6.934;2023-02-12T05:09:42;100401.31;;;10.47;65.27
22964;BME280;11648;49.306;6.934;2023-02-12T05:12:09;100400.47;;;10.50;65.26
22964;BME280;11648;49.306;6.934;2023-02-12T05:14:36;100393.34;;;10.46;65.39
22964;BME280;11648;49.306;6.934;2023-02-12T05:17:02;100397.91;;;10.53;64.99
22964;BME280;11648;49.306;6.934;2023-02-12T05:19:29;100403.94;;;10.47;65.17
22964;BME280;11648;49.306;6.934;2023-02-12T05:21:56;100403.97;;;10.49;65.25
22964;BME280;11648;49.306;6.934;2023-02-12T05:24:22;100409.31;;;10.52;65.08
22964;BME280;11648;49.306;6.934;2023-02-12T05:26:49;100408.41;;;10.51;65.00
22964;BME280;11648;49.306;6.934;2023-02-12T05:29:16;100409.38;;;10.56;65.33
22964;BME280;11648;49.306;6.934;2023-02-12T05:31:44;100406.75;;;10.56;64.64
22964;BME280;11648;49.306;6.934;2023-02-12T05:34:11;100406.69;;;10.53;64.87
22964;BME280;11648;49.306;6.934;2023-02-12T05:36:38;100412.88;;;10.55;65.05
22964;BME280;11648;49.306;6.934;2023-02-12T05:39:06;100411.06;;;10.53;64.95
22964;BME280;11648;49.306;6.934;2023-02-12T05:41:33;100403.97;;;10.49;65.32
22964;BME280;11648;49.306;6.934;2023-02-12T05:44:04;100409.31;;;10.52;64.90
22964;BME280;11648;49.306;6.934;2023-02-12T05:46:32;100411.06;;;10.53;64.53
22964;BME280;11648;49.306;6.934;2023-02-12T05:48:58;100413.28;;;10.33;65.50
22964;BME280;11648;49.306;6.934;2023-02-12T05:51:26;100412.56;;;10.40;65.33
22964;BME280;11648;49.306;6.934;2023-02-12T05:53:56;100419.44;;;10.33;65.45
22964;BME280;11648;49.306;6.934;2023-02-12T05:56:37;100423.94;;;10.37;65.63
22964;BME280;11648;49.306;6.934;2023-02-12T05:59:14;100419.44;;;10.33;65.78
22964;BME280;11648;49.306;6.934;2023-02-12T06:01:43;100421.25;;;10.34;65.42
22964;BME280;11648;49.306;6.934;2023-02-12T06:04:22;100419.44;;;10.33;65.37
22964;BME280;11648;49.306;6.934;2023-02-12T06:06:51;100416.84;;;10.35;65.40
22964;BME280;11648;49.306;6.934;2023-02-12T06:09:18;100425.69;;;10.37;65.74
22964;BME280;11648;49.306;6.934;2023-02-12T06:11:45;100422.25;;;10.43;65.57
22964;BME280;11648;49.306;6.934;2023-02-12T06:14:14;100427.63;;;10.47;64.97
22964;BME280;11648;49.306;6.934;2023-02-12T06:16:47;100435.25;;;10.33;65.23
22964;BME280;11648;49.306;6.934;2023-02-12T06:19:14;100432.72;;;10.38;65.67
22964;BME280;11648;49.306;6.934;2023-02-12T06:21:41;100431.00;;;10.40;65.75
22964;BME280;11648;49.306;6.934;2023-02-12T06:24:10;100436.44;;;10.48;65.74
22964;BME280;11648;49.306;6.934;2023-02-12T06:26:37;100433.84;;;10.51;65.46
22964;BME280;11648;49.306;6.934;2023-02-12T06:29:04;100433.06;;;10.56;65.03
22964;BME280;11648;49.306;6.934;2023-02-12T06:31:33;100433.97;;;10.55;65.01
22964;BME280;11648;49.306;6.934;2023-02-12T06:34:04;100427.91;;;10.59;64.80
22964;BME280;11648;49.306;6.934;2023-02-12T06:36:31;100435.06;;;10.66;64.89
22964;BME280;11648;49.306;6.934;2023-02-12T06:39:00;100434.19;;;10.67;64.48
22964;BME280;11648;49.306;6.934;2023-02-12T06:41:27;100437.78;;;10.71;64.46
22964;BME280;11648;49.306;6.934;2023-02-12T06:43:54;100431.50;;;10.64;64.82
22964;BME280;11648;49.306;6.934;2023-02-12T06:46:21;100429.66;;;10.60;65.35
22964;BME280;11648;49.306;6.934;2023-02-12T06:48:52;100434.13;;;10.64;65.43
22964;BME280;11648;49.306;6.934;2023-02-12T06:51:19;100442.03;;;10.64;64.87
22964;BME280;11648;49.306;6.934;2023-02-12T06:53:49;100437.69;;;10.66;64.88
22964;BME280;11648;49.306;6.934;2023-02-12T06:56:17;100443.81;;;10.65;65.32
22964;BME280;11648;49.306;6.934;2023-02-12T06:58:46;100442.88;;;10.62;65.32
22964;BME280;11648;49.306;6.934;2023-02-12T07:01:19;100440.44;;;10.72;65.73
22964;BME280;11648;49.306;6.934;2023-02-12T07:03:55;100443.19;;;10.77;65.14
22964;BME280;11648;49.306;6.934;2023-02-12T07:06:23;100438.75;;;10.76;65.61
22964;BME280;11648;49.306;6.934;2023-02-12T07:08:50;100441.44;;;10.77;65.65
22964;BME280;11648;49.306;6.934;2023-02-12T07:11:17;100447.34;;;10.67;65.99
22964;BME280;11648;49.306;6.934;2023-02-12T07:13:44;100451.19;;;10.83;65.35
22964;BME280;11648;49.306;6.934;2023-02-12T07:16:13;100444.16;;;10.82;65.65
22964;BME280;11648;49.306;6.934;2023-02-12T07:18:41;100446.03;;;10.87;65.35
22964;BME280;11648;49.306;6.934;2023-02-12T07:21:10;100447.94;;;10.95;65.29
22964;BME280;11648;49.306;6.934;2023-02-12T07:23:37;100443.56;;;10.95;65.09
22964;BME280;11648;49.306;6.934;2023-02-12T07:26:12;100440.91;;;10.97;65.28
22964;BME280;11648;49.306;6.934;2023-02-12T07:28:40;100447.97;;;10.98;65.39
22964;BME280;11648;49.306;6.934;2023-02-12T07:31:08;100443.59;;;10.98;65.27
22964;BME280;11648;49.306;6.934;2023-02-12T07:33:36;100449.91;;;11.08;65.41
22964;BME280;11648;49.306;6.934;2023-02-12T07:36:04;100447.47;;;11.17;64.73
22964;BME280;11648;49.306;6.934;2023-02-12T07:38:31;100445.78;;;11.20;64.78
22964;BME280;11648;49.306;6.934;2023-02-12T07:41:08;100448.56;;;11.29;64.69
22964;BME280;11648;49.306;6.934;2023-02-12T07:43:38;100444.34;;;11.39;64.45
22964;BME280;11648;49.306;6.934;2023-02-12T07:46:10;100452.38;;;11.45;64.18
22964;BME280;11648;49.306;6.934;2023-02-12T07:48:37;100444.44;;;11.44;63.63
22964;BME280;11648;49.306;6.934;2023-02-12T07:51:10;100451.66;;;11.55;63.92
22964;BME280;11648;49.306;6.934;2023-02-12T07:53:37;100454.53;;;11.69;63.48
22964;BME280;11648;49.306;6.934;2023-02-12T07:56:11;100436.31;;;11.82;63.34
22964;BME280;11648;49.306;6.934;2023-02-12T07:58:40;100443.56;;;11.97;63.01
22964;BME280;11648;49.306;6.934;2023-02-12T08:01:32;100441.28;;;12.20;62.14
22964;BME280;11648;49.306;6.934;2023-02-12T08:04:10;100437.09;;;12.37;61.26
22964;BME280;11648;49.306;6.934;2023-02-12T08:06:46;100427.66;;;12.56;60.62
22964;BME280;11648;49.306;6.934;2023-02-12T08:09:19;100434.91;;;12.72;60.53
22964;BME280;11648;49.306;6.934;2023-02-12T08:11:46;100428.06;;;12.87;59.81
22964;BME280;11648;49.306;6.934;2023-02-12T08:14:15;100417.69;;;13.06;59.97
22964;BME280;11648;49.306;6.934;2023-02-12T08:16:43;100429.91;;;12.96;59.85
22964;BME280;11648;49.306;6.934;2023-02-12T08:19:11;100422.16;;;13.11;59.49
22964;BME280;11648;49.306;6.934;2023-02-12T08:21:50;100422.25;;;13.22;59.37
22964;BME280;11648;49.306;6.934;2023-02-12T08:24:17;100425.94;;;13.34;58.82
22964;BME280;11648;49.306;6.934;2023-02-12T08:26:44;100419.69;;;13.25;58.76
22964;BME280;11648;49.306;6.934;2023-02-12T08:29:17;100435.53;;;13.25;59.45
22964;BME280;11648;49.306;6.934;2023-02-12T08:31:47;100431.38;;;13.51;58.86
22964;BME280;11648;49.306;6.934;2023-02-12T08:34:20;100427.22;;;13.86;58.05
22964;BME280;11648;49.306;6.934;2023-02-12T08:36:48;100419.41;;;14.02;57.37
22964;BME280;11648;49.306;6.934;2023-02-12T08:39:17;100422.19;;;14.23;56.83
22964;BME280;11648;49.306;6.934;2023-02-12T08:41:44;100420.47;;;14.32;56.75
22964;BME280;11648;49.306;6.934;2023-02-12T08:44:12;100416.88;;;14.23;56.60
22964;BME280;11648;49.306;6.934;2023-02-12T08:46:43;100425.63;;;14.07;57.06
22964;BME280;11648;49.306;6.934;2023-02-12T08:49:20;100421.38;;;14.33;57.23
22964;BME280;11648;49.306;6.934;2023-02-12T08:51:52;100405.72;;;14.86;56.06
22964;BME280;11648;49.306;6.934;2023-02-12T08:54:22;100402.22;;;15.08;54.47
22964;BME280;11648;49.306;6.934;2023-02-12T08:56:50;100408.44;;;15.34;53.76
22964;BME280;11648;49.306;6.934;2023-02-12T08:59:19;100393.47;;;15.65;52.61
22964;BME280;11648;49.306;6.934;2023-02-12T09:01:49;100397.88;;;15.51;52.91
22964;BME280;11648;49.306;6.934;2023-02-12T09:04:25;100400.41;;;14.95;53.91
22964;BME280;11648;49.306;6.934;2023-02-12T09:06:53;100410.03;;;14.66;54.86
22964;BME280;11648;49.306;6.934;2023-02-12T09:09:20;100409.16;;;14.67;54.75
22964;BME280;11648;49.306;6.934;2023-02-12T09:11:47;100401.13;;;14.44;55.34
22964;BME280;11648;49.306;6.934;2023-02-12T09:14:16;100416.84;;;14.17;55.94
22964;BME280;11648;49.306;6.934;2023-02-12T09:16:44;100421.19;;;14.06;56.50
22964;BME280;11648;49.306;6.934;2023-02-12T09:19:12;100423.44;;;13.51;57.99
22964;BME280;11648;49.306;6.934;2023-02-12T09:21:39;100411.03;;;13.47;58.03
22964;BME280;11648;49.306;6.934;2023-02-12T09:24:07;100419.81;;;13.42;58.41
22964;BME280;11648;49.306;6.934;2023-02-12T09:26:34;100418.13;;;13.51;58.39
22964;BME280;11648;49.306;6.934;2023-02-12T09:29:02;100427.72;;;13.40;58.58
22964;BME280;11648;49.306;6.934;2023-02-12T09:31:31;100425.91;;;13.33;58.83
22964;BME280;11648;49.306;6.934;2023-02-12T09:34:03;100427.94;;;13.63;58.15
22964;BME280;11648;49.306;6.934;2023-02-12T09:36:32;100420.97;;;13.74;57.87
22964;BME280;11648;49.306;6.934;2023-02-12T09:38:59;100421.81;;;13.68;58.55
22964;BME280;11648;49.306;6.934;2023-02-12T09:41:44;100422.81;;;13.84;58.10
22964;BME280;11648;49.306;6.934;2023-02-12T09:44:18;100418.28;;;13.68;58.10
22964;BME280;11648;49.306;6.934;2023-02-12T09:47:04;100426.91;;;13.46;59.18
22964;BME280;11648;49.306;6.934;2023-02-12T09:49:51;100422.34;;;13.28;59.34
22964;BME280;11648;49.306;6.934;2023-02-12T09:52:25;100429.25;;;13.15;59.94
22964;BME280;11648;49.306;6.934;2023-02-12T09:54:53;100431.16;;;13.27;59.81
22964;BME280;11648;49.306;6.934;2023-02-12T09:57:26;100433.75;;;13.24;60.05
22964;BME280;11648;49.306;6.934;2023-02-12T10:00:03;100429.34;;;13.21;60.00
22964;BME280;11648;49.306;6.934;2023-02-12T10:02:30;100431.47;;;12.79;61.06
22964;BME280;11648;49.306;6.934;2023-02-12T10:05:00;100438.53;;;12.78;61.21
22964;BME280;11648;49.306;6.934;2023-02-12T10:11:00;100437.78;;;12.92;61.34
22964;BME280;11648;49.306;6.934;2023-02-12T10:13:07;100434.72;;;12.55;61.20
22964;BME280;11648;49.306;6.934;2023-02-12T10:16:13;100435.09;;;12.85;60.00
22964;BME280;11648;49.306;6.934;2023-02-12T10:21:38;100436.13;;;13.00;60.08
22964;BME280;11648;49.306;6.934;2023-02-12T10:27:00;100437.56;;;12.73;60.18
22964;BME280;11648;49.306;6.934;2023-02-12T10:29:31;100430.63;;;12.81;60.11
22964;BME280;11648;49.306;6.934;2023-02-12T10:34:40;100438.38;;;12.66;60.68
22964;BME280;11648;49.306;6.934;2023-02-12T10:40:15;100449.59;;;12.50;60.86
22964;BME280;11648;49.306;6.934;2023-02-12T10:42:46;100436.19;;;12.32;61.15
22964;BME280;11648;49.306;6.934;2023-02-12T10:45:20;100436.81;;;12.16;61.70
22964;BME280;11648;49.306;6.934;2023-02-12T10:47:51;100438.91;;;12.39;61.31
22964;BME280;11648;49.306;6.934;2023-02-12T10:53:00;100435.28;;;12.33;61.09
22964;BME280;11648;49.306;6.934;2023-02-12T10:57:59;100426.44;;;12.29;61.25
22964;BME280;11648;49.306;6.934;2023-02-12T11:00:35;100429.63;;;12.07;61.95
22964;BME280;11648;49.306;6.934;2023-02-12T11:05:40;100423.56;;;12.13;61.58
22964;BME280;11648;49.306;6.934;2023-02-12T11:10:51;100425.22;;;12.05;62.09
22964;BME280;11648;49.306;6.934;2023-02-12T11:13:25;100427.63;;;11.88;62.56
22964;BME280;11648;49.306;6.934;2023-02-12T11:15:53;100414.91;;;12.23;61.69
22964;BME280;11648;49.306;6.934;2023-02-12T11:18:23;100415.81;;;12.25;61.67
22964;BME280;11648;49.306;6.934;2023-02-12T11:21:08;100404.63;;;12.44;60.90
22964;BME280;11648;49.306;6.934;2023-02-12T11:23:40;100402.28;;;12.67;60.76
22964;BME280;11648;49.306;6.934;2023-02-12T11:28:53;100392.69;;;12.76;59.96
22964;BME280;11648;49.306;6.934;2023-02-12T11:31:28;100385.69;;;12.81;59.77
22964;BME280;11648;49.306;6.934;2023-02-12T11:36:39;100391.19;;;13.00;59.36
22964;BME280;11648;49.306;6.934;2023-02-12T11:41:43;100388.25;;;12.75;59.82
22964;BME280;11648;49.306;6.934;2023-02-12T11:44:12;100395.38;;;12.81;59.75
22964;BME280;11648;49.306;6.934;2023-02-12T11:46:49;100391.19;;;13.00;58.98
22964;BME280;11648;49.306;6.934;2023-02-12T11:49:22;100394.81;;;13.09;59.11
22964;BME280;11648;49.306;6.934;2023-02-12T11:51:51;100400.72;;;12.87;59.04
22964;BME280;11648;49.306;6.934;2023-02-12T11:54:29;100390.38;;;13.08;59.01
22964;BME280;11648;49.306;6.934;2023-02-12T11:56:59;100402.03;;;13.24;58.30
22964;BME280;11648;49.306;6.934;2023-02-12T11:59:35;100396.38;;;12.94;59.23
22964;BME280;11648;49.306;6.934;2023-02-12T12:02:25;100394.44;;;12.74;59.59
22964;BME280;11648;49.306;6.934;2023-02-12T12:05:06;100396.97;;;12.68;60.16
22964;BME280;11648;49.306;6.934;2023-02-12T12:07:35;100382.78;;;12.59;60.07
22964;BME280;11648;49.306;6.934;2023-02-12T12:10:23;100383.88;;;12.77;60.01
22964;BME280;11648;49.306;6.934;2023-02-12T12:12:56;100383.88;;;12.79;59.59
22964;BME280;11648;49.306;6.934;2023-02-12T12:15:27;100382.03;;;12.67;59.88
22964;BME280;11648;49.306;6.934;2023-02-12T12:18:36;100365.50;;;12.89;59.56
22964;BME280;11648;49.306;6.934;2023-02-12T12:25:03;100380.66;;;13.06;58.99
22964;BME280;11648;49.306;6.934;2023-02-12T12:27:40;100372.06;;;13.29;58.30
22964;BME280;11648;49.306;6.934;2023-02-12T12:30:48;100371.38;;;13.52;57.78
22964;BME280;11648;49.306;6.934;2023-02-12T12:33:25;100369.81;;;13.76;57.35
22964;BME280;11648;49.306;6.934;2023-02-12T12:36:17;100355.81;;;13.99;56.54
22964;BME280;11648;49.306;6.934;2023-02-12T12:44:31;100355.03;;;14.15;55.72
22964;BME280;11648;49.306;6.934;2023-02-12T12:47:13;100355.00;;;14.12;56.09
22964;BME280;11648;49.306;6.934;2023-02-12T12:49:57;100361.94;;;13.87;56.33
22964;BME280;11648;49.306;6.934;2023-02-12T13:21:00;100320.84;;;14.81;54.29
22964;BME280;11648;49.306;6.934;2023-02-12T13:29:05;100309.28;;;14.55;54.79
22964;BME280;11648;49.306;6.934;2023-02-12T13:31:42;100311.06;;;14.56;54.68
22964;BME280;11648;49.306;6.934;2023-02-12T13:34:13;100303.94;;;14.37;55.01
22964;BME280;11648;49.306;6.934;2023-02-12T13:36:41;100303.97;;;14.49;55.26
22964;BME280;11648;49.306;6.934;2023-02-12T13:39:15;100311.06;;;14.59;54.89
22964;BME280;11648;49.306;6.934;2023-02-12T13:41:51;100306.59;;;14.42;54.66
22964;BME280;11648;49.306;6.934;2023-02-12T13:44:34;100321.41;;;14.02;55.55
22964;BME280;11648;49.306;6.934;2023-02-12T13:47:17;100317.88;;;13.94;55.54
22964;BME280;11648;49.306;6.934;2023-02-12T13:52:44;100325.69;;;13.74;56.30
22964;BME280;11648;49.306;6.934;2023-02-12T13:55:25;100318.69;;;13.82;56.38
22964;BME280;11648;49.306;6.934;2023-02-12T14:01:08;100316.94;;;13.92;56.15
22964;BME280;11648;49.306;6.934;2023-02-12T14:03:37;100313.50;;;14.09;55.48
22964;BME280;11648;49.306;6.934;2023-02-12T14:08:44;100311.06;;;14.47;55.28
22964;BME280;11648;49.306;6.934;2023-02-12T14:11:15;100305.72;;;14.46;54.65
22964;BME280;11648;49.306;6.934;2023-02-12T14:14:00;100297.78;;;14.46;54.39
22964;BME280;11648;49.306;6.934;2023-02-12T14:22:01;100307.38;;;14.19;54.81
22964;BME280;11648;49.306;6.934;2023-02-12T14:27:06;100307.31;;;14.04;55.39
22964;BME280;11648;49.306;6.934;2023-02-12T14:38:02;100305.50;;;13.96;55.86
22964;BME280;11648;49.306;6.934;2023-02-12T14:43:00;100297.69;;;14.21;55.19
22964;BME280;11648;49.306;6.934;2023-02-12T14:45:34;100293.19;;;14.07;55.22
22964;BME280;11648;49.306;6.934;2023-02-12T14:48:03;100300.28;;;14.08;55.32
22964;BME280;11648;49.306;6.934;2023-02-12T14:50:37;100298.50;;;14.07;55.14
22964;BME280;11648;49.306;6.934;2023-02-12T14:53:15;100294.97;;;14.08;55.67
22964;BME280;11648;49.306;6.934;2023-02-12T14:55:48;100296.78;;;14.15;55.60
22964;BME280;11648;49.306;6.934;2023-02-12T14:58:18;100297.56;;;14.02;55.01
22964;BME280;11648;49.306;6.934;2023-02-12T15:00:47;100295.78;;;13.93;55.93
22964;BME280;11648;49.306;6.934;2023-02-12T15:03:27;100285.16;;;13.87;55.80
22964;BME280;11648;49.306;6.934;2023-02-12T15:06:06;100286.88;;;13.77;55.95
22964;BME280;11648;49.306;6.934;2023-02-12T15:11:49;100283.47;;;14.09;55.51
22964;BME280;11648;49.306;6.934;2023-02-12T15:14:34;100285.25;;;14.08;55.50
22964;BME280;11648;49.306;6.934;2023-02-12T15:17:19;100283.44;;;13.97;55.39
22964;BME280;11648;49.306;6.934;2023-02-12T15:19:59;100279.06;;;14.06;55.34
22964;BME280;11648;49.306;6.934;2023-02-12T15:22:37;100283.44;;;13.94;55.73
22964;BME280;11648;49.306;6.934;2023-02-12T15:25:22;100280.78;;;13.95;55.75
22964;BME280;11648;49.306;6.934;2023-02-12T15:27:59;100278.94;;;13.77;56.06
22964;BME280;11648;49.306;6.934;2023-02-12T15:30:34;100274.50;;;13.76;56.27
22964;BME280;11648;49.306;6.934;2023-02-12T15:33:04;100276.25;;;13.76;55.94
22964;BME280;11648;49.306;6.934;2023-02-12T15:35:35;100278.91;;;13.74;56.13
22964;BME280;11648;49.306;6.934;2023-02-12T15:38:03;100283.31;;;13.74;56.04